Lexington, OK (73051)

2:46 PM CDT on May 25, 2015 (GMT -0500)
Home | | Change Station
CLOSE
Current Station
Personal Weather Station
Location: Noble, OK
Elevation: 1122 ft
Nearby Weather Stations
Active Advisory: Tornado Watch

Elev 1122 ft 35.11 °N, 97.38 °W | Updated 6 minutes ago

Partly Cloudy
Partly Cloudy
71.8 °F
Feels Like 70 °F
N
2.0
Wind Variable Wind from South
Gusts 2.0 mph

Today
High -- | Low -- °F
--% Chance of Precip.
Yesterday
High -- | Low -- °F
Precip. -- in
6:19 AM 8:33 PM
Waxing Crescent, 51% visible
Pressure 29.87 in
Visibility 10.0 miles
Clouds Scattered Clouds 2500 ft
Scattered Clouds 3100 ft
Heat Index 70 °F
Dew Point 68 °F
Humidity 87%
Rainfall 0.00 in
Snow Depth Not available.
UV 9 out of 12
Pollen 7.30 out of 12
Air Quality Not available.
Flu Activity Sporadic
METAR KOUN 251935Z AUTO 17006KT 10SM SCT025 SCT031 22/20 A2987 RMK AO2 LTG DSNT S AND W

More Conditions Fewer Conditions

Pressure 29.87 in
Visibility 10.0 miles
Clouds Scattered Clouds 2500 ft
Scattered Clouds 3100 ft
Heat Index 70 °F
Dew Point 68 °F
Humidity 87%
Rainfall 0.00 in
Snow Depth Not available.
UV 9 out of 12
Pollen 7.30 out of 12
Air Quality Not available.
Flu Activity Sporadic
METAR KOUN 251935Z AUTO 17006KT 10SM SCT025 SCT031 22/20 A2987 RMK AO2 LTG DSNT S AND W

More Conditions Fewer Conditions

10-Day Weather Forecast

Almanac

Astronomy

May. 25, 2015 Rise Set
Actual Time
Civil Twilight
Nautical Twilight
Astronomical Twilight
Moon
Length of Visible Light
Length of Day
Tomorrow will be .
, % of the Moon is Illuminated

Today's Extremes

State Highs State Lows

Community

WunderPhotos

Upload Photos

1,824,102 photos uploaded!

WunderBlogs® & News

Nearby

Air Quality

  Air Quality AQ Index Pollutant
Not available.

Snow Depth

Station Depth Elevation

Earthquake Activity

City Distance Mag. Time & Date
Minimum magnitude displayed is 2.5.

Coastal Water Temperatures

Place Temperature

Stations

Nearby Weather Stations

Station Location Temp. Windchill Dew Point Humidity Wind Precip. Elev Updated Type
                   
Tornado Watch
Statement as of 2:43 PM CDT on May 25, 2015

Tornado Watch 211 remains in effect until 600 PM CDT for the
following locations


OK
. Oklahoma counties included are

Atoka Bryan Canadian
Carter Cleveland Coal
Garvin Grady Hughes
Jefferson Johnston Love
McClain Marshall Murray
Oklahoma Pontotoc Pottawatomie
Seminole Stephens